Aeroporto :
LOGIN :

Iscrizione | Disclaimer

   EN    FR    IT 

 










Sommario :    VFR   VFR Marginale   IFR   IFR Intensivo   IFR Molto Intensivo
Visibilità : 
Base nubi : 
>= 8 km
>= 3000ft
5 / 8 km
1000 / 3000 ft
1500m / 5 km
500 / 1000 ft
800 / 1500m
200 / 500 ft
< 800m
< 200 ft
Simboli :   Temporali  Nebbia  Neve Forte  Precipitazioni Forti  Vento > 20 kt
SIGMETs :   Varie  Temporali  Ghiacco  Turbolenza  Onda orograficha  Ceneri Vulcaniche






- Altitudine del aeroporto : 162 ft
- Codice IATA : BOD


LFBD - Bordeaux / Merignac

ULTIMO METAR :
  • 211900Z AUTO 03011KT CAVOK 09/03 Q1030 NOSIG

METARs OBSOLETI :
  • 211830Z AUTO 03012KT CAVOK 09/03 Q1030 NOSIG
  • 211800Z AUTO 03010KT CAVOK 09/03 Q1030 NOSIG
  • 211730Z AUTO 02007KT CAVOK 09/03 Q1030 NOSIG
  • 211700Z AUTO 02006KT CAVOK 10/03 Q1030 NOSIG
  • 211630Z AUTO 04011KT CAVOK 11/03 Q1030 NOSIG

TAF TAF LFBD
Valido dal 21 a 18 ore il 23 a 00 ore UTC


211700Z 2118/2224 04010KT CAVOK TX10/2215Z TN04/2206Z
TEMPO 2208/2222 4000 -RA
PROB30
TEMPO 2218/2222 BKN013
ATIS : +33 5 57 92 81 04



MetMap, La meteo Aeronautica in un colpo d'occhio ! - Copyright ORBIFLY Dicembre 2007 - Disclaimer

ORBIFLY MET'MAP TEAM :

Programmazione e sviluppo : Alexandra Zaïnal
Concezione : Baudouin d'Aumeries
Aiuto per la programmazione : Marc-Olivier Méhu
Supporto tecnico e logistico : Manuel Goepfert
Aiuto per la traduzione : Arnaldo La Scala

Contatto : metmap@orbifly.com




FONTI E CREDITI :

   NOAA